KALM

Alamogordo-White Sands Regional Airport

Alamogordo, New Mexico, USA
METAR KALM 220635Z AUTO 19003KT 10SM CLR 10/M05 A3014 RMK AO2
Observed Flight Rules
Apr-22 @ 06:35 UTC (23 minutes ago) Visual Flight Rules
Wind Visibility Clouds
190° at 3 knots 10 miles
  • Clear skies
Temperatures Readings
Current 10°C / 50°F
Dewpoint -5°C / 23°F
Humidity 35%
Altimeter 30.14" Hg
Pressure 1021 hPa
Elevation 1279
METAR KALM 220635Z AUTO 19003KT 10SM CLR 10/M05 A3014 RMK AO2
Observed Flight Rules
Apr-22 @ 06:35 UTC
(23 minutes ago)
VFR
Wind Visibility
190° at 3 knots 10 miles
Clouds
  • Clear skies
Temperature Dewpoint
10°C / 50°F -5°C / 23°F
Humidity Altimeter Pressure
35% 30.14" Hg 1021 hPa